sensor_id;sensor_type;location;lat;lon;timestamp;temperature;humidity
47600;DHT22;33323;52.124;6.018;2023-04-01T00:00:59;9.80;99.90
47600;DHT22;33323;52.124;6.018;2023-04-01T00:03:27;9.80;99.90
47600;DHT22;33323;52.124;6.018;2023-04-01T00:05:58;9.80;99.90
47600;DHT22;33323;52.124;6.018;2023-04-01T00:08:27;9.80;99.90
47600;DHT22;33323;52.124;6.018;2023-04-01T00:10:55;9.80;99.90
47600;DHT22;33323;52.124;6.018;2023-04-01T00:13:25;9.80;99.90
47600;DHT22;33323;52.124;6.018;2023-04-01T00:15:54;9.70;99.90
47600;DHT22;33323;52.124;6.018;2023-04-01T00:18:23;9.70;99.90
47600;DHT22;33323;52.124;6.018;2023-04-01T00:20:51;9.70;99.90
47600;DHT22;33323;52.124;6.018;2023-04-01T00:23:20;9.70;99.90
47600;DHT22;33323;52.124;6.018;2023-04-01T00:25:48;9.70;99.90
47600;DHT22;33323;52.124;6.018;2023-04-01T00:28:17;9.70;99.90
47600;DHT22;33323;52.124;6.018;2023-04-01T00:30:46;9.70;99.90
47600;DHT22;33323;52.124;6.018;2023-04-01T00:33:14;9.70;99.90
47600;DHT22;33323;52.124;6.018;2023-04-01T00:35:41;9.70;99.90
47600;DHT22;33323;52.124;6.018;2023-04-01T00:38:09;9.80;99.90
47600;DHT22;33323;52.124;6.018;2023-04-01T00:40:45;9.80;99.90
47600;DHT22;33323;52.124;6.018;2023-04-01T00:43:18;9.80;99.90
47600;DHT22;33323;52.124;6.018;2023-04-01T00:45:48;9.80;99.90
47600;DHT22;33323;52.124;6.018;2023-04-01T00:48:23;9.70;99.90
47600;DHT22;33323;52.124;6.018;2023-04-01T00:51:00;9.70;99.90
47600;DHT22;33323;52.124;6.018;2023-04-01T00:53:28;9.80;99.90
47600;DHT22;33323;52.124;6.018;2023-04-01T00:56:01;9.80;99.90
47600;DHT22;33323;52.124;6.018;2023-04-01T00:58:35;9.80;99.90
47600;DHT22;33323;52.124;6.018;2023-04-01T01:01:04;9.70;99.90
47600;DHT22;33323;52.124;6.018;2023-04-01T01:03:32;9.80;99.90
47600;DHT22;33323;52.124;6.018;2023-04-01T01:15:03;9.80;99.90
47600;DHT22;33323;52.124;6.018;2023-04-01T01:26:49;9.80;99.90
47600;DHT22;33323;52.124;6.018;2023-04-01T01:29:42;9.70;99.90
47600;DHT22;33323;52.124;6.018;2023-04-01T01:35:42;9.70;99.90
47600;DHT22;33323;52.124;6.018;2023-04-01T01:38:23;9.70;99.90
47600;DHT22;33323;52.124;6.018;2023-04-01T01:40:59;9.70;99.90
47600;DHT22;33323;52.124;6.018;2023-04-01T01:43:35;9.70;99.90
47600;DHT22;33323;52.124;6.018;2023-04-01T01:46:10;9.70;99.90
47600;DHT22;33323;52.124;6.018;2023-04-01T01:48:41;9.80;99.90
47600;DHT22;33323;52.124;6.018;2023-04-01T01:51:09;9.70;99.90
47600;DHT22;33323;52.124;6.018;2023-04-01T01:53:36;9.70;99.90
47600;DHT22;33323;52.124;6.018;2023-04-01T01:56:04;9.70;99.90
47600;DHT22;33323;52.124;6.018;2023-04-01T01:58:43;9.80;99.90
47600;DHT22;33323;52.124;6.018;2023-04-01T02:01:41;9.70;99.90
47600;DHT22;33323;52.124;6.018;2023-04-01T02:04:13;9.70;99.90
47600;DHT22;33323;52.124;6.018;2023-04-01T02:06:56;9.70;99.90
47600;DHT22;33323;52.124;6.018;2023-04-01T02:09:27;9.70;99.90
47600;DHT22;33323;52.124;6.018;2023-04-01T02:11:58;9.70;99.90
47600;DHT22;33323;52.124;6.018;2023-04-01T02:17:39;9.70;99.90
47600;DHT22;33323;52.124;6.018;2023-04-01T02:20:21;9.70;99.90
47600;DHT22;33323;52.124;6.018;2023-04-01T02:22:54;9.70;99.90
47600;DHT22;33323;52.124;6.018;2023-04-01T02:25:30;9.70;99.90
47600;DHT22;33323;52.124;6.018;2023-04-01T02:28:02;9.60;99.90
47600;DHT22;33323;52.124;6.018;2023-04-01T02:30:33;9.60;99.90
47600;DHT22;33323;52.124;6.018;2023-04-01T02:33:03;9.60;99.90
47600;DHT22;33323;52.124;6.018;2023-04-01T02:35:35;9.60;99.90
47600;DHT22;33323;52.124;6.018;2023-04-01T02:38:04;9.60;99.90
47600;DHT22;33323;52.124;6.018;2023-04-01T02:40:49;9.60;99.90
47600;DHT22;33323;52.124;6.018;2023-04-01T02:43:18;9.60;99.90
47600;DHT22;33323;52.124;6.018;2023-04-01T02:45:46;9.60;99.90
47600;DHT22;33323;52.124;6.018;2023-04-01T02:48:13;9.60;99.90
47600;DHT22;33323;52.124;6.018;2023-04-01T02:50:40;9.50;99.90
47600;DHT22;33323;52.124;6.018;2023-04-01T02:53:08;9.50;99.90
47600;DHT22;33323;52.124;6.018;2023-04-01T02:55:35;9.50;99.90
47600;DHT22;33323;52.124;6.018;2023-04-01T02:58:02;9.60;99.90
47600;DHT22;33323;52.124;6.018;2023-04-01T03:00:30;9.50;99.90
47600;DHT22;33323;52.124;6.018;2023-04-01T03:02:57;9.60;99.90
47600;DHT22;33323;52.124;6.018;2023-04-01T03:05:25;9.50;99.90
47600;DHT22;33323;52.124;6.018;2023-04-01T03:07:52;9.50;99.90
47600;DHT22;33323;52.124;6.018;2023-04-01T03:10:19;9.50;99.90
47600;DHT22;33323;52.124;6.018;2023-04-01T03:12:47;9.50;99.90
47600;DHT22;33323;52.124;6.018;2023-04-01T03:15:14;9.50;99.90
47600;DHT22;33323;52.124;6.018;2023-04-01T03:17:42;9.50;99.90
47600;DHT22;33323;52.124;6.018;2023-04-01T03:20:10;9.50;99.90
47600;DHT22;33323;52.124;6.018;2023-04-01T03:22:38;9.50;99.90
47600;DHT22;33323;52.124;6.018;2023-04-01T03:25:09;9.50;99.90
47600;DHT22;33323;52.124;6.018;2023-04-01T03:27:37;9.50;99.90
47600;DHT22;33323;52.124;6.018;2023-04-01T03:30:07;9.50;99.90
47600;DHT22;33323;52.124;6.018;2023-04-01T03:32:41;9.50;99.90
47600;DHT22;33323;52.124;6.018;2023-04-01T03:35:08;9.40;99.90
47600;DHT22;33323;52.124;6.018;2023-04-01T03:37:37;9.50;99.90
47600;DHT22;33323;52.124;6.018;2023-04-01T03:40:05;9.40;99.90
47600;DHT22;33323;52.124;6.018;2023-04-01T03:42:32;9.40;99.90
47600;DHT22;33323;52.124;6.018;2023-04-01T03:44:59;9.40;99.90
47600;DHT22;33323;52.124;6.018;2023-04-01T03:47:27;9.40;99.90
47600;DHT22;33323;52.124;6.018;2023-04-01T03:49:54;9.40;99.90
47600;DHT22;33323;52.124;6.018;2023-04-01T03:52:21;9.40;99.90
47600;DHT22;33323;52.124;6.018;2023-04-01T03:54:49;9.40;99.90
47600;DHT22;33323;52.124;6.018;2023-04-01T03:57:16;9.40;99.90
47600;DHT22;33323;52.124;6.018;2023-04-01T03:59:43;9.40;99.90
47600;DHT22;33323;52.124;6.018;2023-04-01T04:02:10;9.40;99.90
47600;DHT22;33323;52.124;6.018;2023-04-01T04:04:38;9.40;99.90
47600;DHT22;33323;52.124;6.018;2023-04-01T04:07:05;9.40;99.90
47600;DHT22;33323;52.124;6.018;2023-04-01T04:09:50;9.40;99.90
47600;DHT22;33323;52.124;6.018;2023-04-01T04:12:17;9.40;99.90
47600;DHT22;33323;52.124;6.018;2023-04-01T04:14:44;9.40;99.90
47600;DHT22;33323;52.124;6.018;2023-04-01T04:17:12;9.40;99.90
47600;DHT22;33323;52.124;6.018;2023-04-01T04:19:43;9.40;99.90
47600;DHT22;33323;52.124;6.018;2023-04-01T04:22:11;9.40;99.90
47600;DHT22;33323;52.124;6.018;2023-04-01T04:24:38;9.30;99.90
47600;DHT22;33323;52.124;6.018;2023-04-01T04:27:11;9.30;99.90
47600;DHT22;33323;52.124;6.018;2023-04-01T04:29:49;9.30;99.90
47600;DHT22;33323;52.124;6.018;2023-04-01T04:32:16;9.40;99.90
47600;DHT22;33323;52.124;6.018;2023-04-01T04:34:43;9.30;99.90
47600;DHT22;33323;52.124;6.018;2023-04-01T04:37:10;9.30;99.90
47600;DHT22;33323;52.124;6.018;2023-04-01T04:39:38;9.40;99.90
47600;DHT22;33323;52.124;6.018;2023-04-01T04:42:05;9.40;99.90
47600;DHT22;33323;52.124;6.018;2023-04-01T04:44:32;9.40;99.90
47600;DHT22;33323;52.124;6.018;2023-04-01T04:47:00;9.30;99.90
47600;DHT22;33323;52.124;6.018;2023-04-01T04:49:28;9.30;99.90
47600;DHT22;33323;52.124;6.018;2023-04-01T04:51:55;9.30;99.90
47600;DHT22;33323;52.124;6.018;2023-04-01T04:54:25;9.30;99.90
47600;DHT22;33323;52.124;6.018;2023-04-01T04:56:55;9.30;99.90
47600;DHT22;33323;52.124;6.018;2023-04-01T04:59:24;9.40;99.90
47600;DHT22;33323;52.124;6.018;2023-04-01T05:01:59;9.40;99.90
47600;DHT22;33323;52.124;6.018;2023-04-01T05:04:27;9.40;99.90
47600;DHT22;33323;52.124;6.018;2023-04-01T05:06:55;9.40;99.90
47600;DHT22;33323;52.124;6.018;2023-04-01T05:09:23;9.40;99.90
47600;DHT22;33323;52.124;6.018;2023-04-01T05:11:50;9.40;99.90
47600;DHT22;33323;52.124;6.018;2023-04-01T05:14:19;9.40;99.90
47600;DHT22;33323;52.124;6.018;2023-04-01T05:16:54;9.40;99.90
47600;DHT22;33323;52.124;6.018;2023-04-01T05:19:21;9.40;99.90
47600;DHT22;33323;52.124;6.018;2023-04-01T05:21:50;9.40;99.90
47600;DHT22;33323;52.124;6.018;2023-04-01T05:24:17;9.40;99.90
47600;DHT22;33323;52.124;6.018;2023-04-01T05:26:45;9.40;99.90
47600;DHT22;33323;52.124;6.018;2023-04-01T05:29:13;9.40;99.90
47600;DHT22;33323;52.124;6.018;2023-04-01T05:31:41;9.50;99.90
47600;DHT22;33323;52.124;6.018;2023-04-01T05:34:10;9.60;99.90
47600;DHT22;33323;52.124;6.018;2023-04-01T05:36:38;9.60;99.90
47600;DHT22;33323;52.124;6.018;2023-04-01T05:39:05;9.60;99.90
47600;DHT22;33323;52.124;6.018;2023-04-01T05:41:35;9.60;99.90
47600;DHT22;33323;52.124;6.018;2023-04-01T05:44:04;9.60;99.90
47600;DHT22;33323;52.124;6.018;2023-04-01T05:46:41;9.60;99.90
47600;DHT22;33323;52.124;6.018;2023-04-01T05:49:15;9.60;99.90
47600;DHT22;33323;52.124;6.018;2023-04-01T05:51:43;9.60;99.90
47600;DHT22;33323;52.124;6.018;2023-04-01T05:54:11;9.70;99.90
47600;DHT22;33323;52.124;6.018;2023-04-01T05:56:39;9.70;99.90
47600;DHT22;33323;52.124;6.018;2023-04-01T05:59:09;9.70;99.90
47600;DHT22;33323;52.124;6.018;2023-04-01T06:01:37;9.70;99.90
47600;DHT22;33323;52.124;6.018;2023-04-01T06:04:05;9.70;99.90
47600;DHT22;33323;52.124;6.018;2023-04-01T06:06:33;9.70;99.90
47600;DHT22;33323;52.124;6.018;2023-04-01T06:09:16;9.80;99.90
47600;DHT22;33323;52.124;6.018;2023-04-01T06:21:02;9.80;99.90
47600;DHT22;33323;52.124;6.018;2023-04-01T06:29:58;9.80;99.90
47600;DHT22;33323;52.124;6.018;2023-04-01T06:32:40;9.90;99.90
47600;DHT22;33323;52.124;6.018;2023-04-01T06:54:16;10.10;99.90
47600;DHT22;33323;52.124;6.018;2023-04-01T06:57:11;10.10;99.90
47600;DHT22;33323;52.124;6.018;2023-04-01T06:59:47;10.10;99.90
47600;DHT22;33323;52.124;6.018;2023-04-01T07:05:38;10.10;99.90
47600;DHT22;33323;52.124;6.018;2023-04-01T07:08:10;10.10;99.90
47600;DHT22;33323;52.124;6.018;2023-04-01T07:13:45;10.10;99.90
47600;DHT22;33323;52.124;6.018;2023-04-01T07:16:27;10.00;99.90
47600;DHT22;33323;52.124;6.018;2023-04-01T07:19:03;10.10;99.90
47600;DHT22;33323;52.124;6.018;2023-04-01T07:25:18;10.10;99.90
47600;DHT22;33323;52.124;6.018;2023-04-01T07:28:05;10.00;99.90
47600;DHT22;33323;52.124;6.018;2023-04-01T07:37:18;10.00;99.90
47600;DHT22;33323;52.124;6.018;2023-04-01T07:43:09;10.10;99.90
47600;DHT22;33323;52.124;6.018;2023-04-01T07:49:14;10.20;99.90
47600;DHT22;33323;52.124;6.018;2023-04-01T07:55:00;10.20;99.90
47600;DHT22;33323;52.124;6.018;2023-04-01T08:00:13;10.40;99.90
47600;DHT22;33323;52.124;6.018;2023-04-01T08:06:05;10.50;99.90
47600;DHT22;33323;52.124;6.018;2023-04-01T08:09:00;10.60;99.90
47600;DHT22;33323;52.124;6.018;2023-04-01T08:15:34;10.90;99.90
47600;DHT22;33323;52.124;6.018;2023-04-01T08:18:52;11.20;99.90
47600;DHT22;33323;52.124;6.018;2023-04-01T08:21:32;11.20;99.90
47600;DHT22;33323;52.124;6.018;2023-04-01T08:24:22;11.30;99.90
47600;DHT22;33323;52.124;6.018;2023-04-01T08:27:09;11.40;99.90
47600;DHT22;33323;52.124;6.018;2023-04-01T08:29:48;11.50;99.90
47600;DHT22;33323;52.124;6.018;2023-04-01T08:32:40;11.50;99.90
47600;DHT22;33323;52.124;6.018;2023-04-01T08:35:24;11.40;99.90
47600;DHT22;33323;52.124;6.018;2023-04-01T08:38:21;11.30;99.90
47600;DHT22;33323;52.124;6.018;2023-04-01T08:53:47;11.50;99.90
47600;DHT22;33323;52.124;6.018;2023-04-01T09:20:52;11.70;99.90
47600;DHT22;33323;52.124;6.018;2023-04-01T09:34:32;11.90;99.90
47600;DHT22;33323;52.124;6.018;2023-04-01T09:39:42;12.00;99.90
47600;DHT22;33323;52.124;6.018;2023-04-01T09:42:38;12.00;99.90
47600;DHT22;33323;52.124;6.018;2023-04-01T09:54:20;12.50;99.90
47600;DHT22;33323;52.124;6.018;2023-04-01T10:12:55;13.20;99.90
47600;DHT22;33323;52.124;6.018;2023-04-01T10:21:17;12.40;99.90
47600;DHT22;33323;52.124;6.018;2023-04-01T10:39:08;12.00;99.90
47600;DHT22;33323;52.124;6.018;2023-04-01T10:54:12;12.10;99.90
47600;DHT22;33323;52.124;6.018;2023-04-01T11:33:36;11.60;99.90
47600;DHT22;33323;52.124;6.018;2023-04-01T11:36:28;11.60;99.90
47600;DHT22;33323;52.124;6.018;2023-04-01T11:42:44;11.70;99.90
47600;DHT22;33323;52.124;6.018;2023-04-01T11:45:44;11.70;99.90
47600;DHT22;33323;52.124;6.018;2023-04-01T11:51:34;11.70;99.90
47600;DHT22;33323;52.124;6.018;2023-04-01T11:54:41;11.70;99.90
47600;DHT22;33323;52.124;6.018;2023-04-01T12:12:23;11.90;99.90
47600;DHT22;33323;52.124;6.018;2023-04-01T12:15:20;12.00;99.90
47600;DHT22;33323;52.124;6.018;2023-04-01T12:35:29;12.60;99.90
47600;DHT22;33323;52.124;6.018;2023-04-01T12:41:39;12.50;99.90
47600;DHT22;33323;52.124;6.018;2023-04-01T12:47:51;12.20;99.90
47600;DHT22;33323;52.124;6.018;2023-04-01T13:06:20;11.50;99.90
47600;DHT22;33323;52.124;6.018;2023-04-01T13:09:24;11.40;99.90
47600;DHT22;33323;52.124;6.018;2023-04-01T13:20:54;11.40;99.90
47600;DHT22;33323;52.124;6.018;2023-04-01T13:29:31;11.50;99.90
47600;DHT22;33323;52.124;6.018;2023-04-01T13:44:17;11.80;99.90
47600;DHT22;33323;52.124;6.018;2023-04-01T13:50:04;12.00;99.90
47600;DHT22;33323;52.124;6.018;2023-04-01T13:53:05;12.00;99.90
47600;DHT22;33323;52.124;6.018;2023-04-01T14:20:32;11.90;99.90
47600;DHT22;33323;52.124;6.018;2023-04-01T14:39:20;11.90;99.90
47600;DHT22;33323;52.124;6.018;2023-04-01T14:51:38;11.90;99.90
47600;DHT22;33323;52.124;6.018;2023-04-01T14:54:16;11.80;99.90
47600;DHT22;33323;52.124;6.018;2023-04-01T14:59:52;11.50;99.90
47600;DHT22;33323;52.124;6.018;2023-04-01T15:04:56;11.30;99.90
47600;DHT22;33323;52.124;6.018;2023-04-01T15:08:05;11.20;99.90
47600;DHT22;33323;52.124;6.018;2023-04-01T15:14:11;11.10;99.90
47600;DHT22;33323;52.124;6.018;2023-04-01T15:38:36;10.90;99.90
47600;DHT22;33323;52.124;6.018;2023-04-01T15:44:45;10.90;99.90
47600;DHT22;33323;52.124;6.018;2023-04-01T16:13:24;10.70;99.90
47600;DHT22;33323;52.124;6.018;2023-04-01T16:27:46;10.50;99.90
47600;DHT22;33323;52.124;6.018;2023-04-01T16:30:46;10.40;99.90
47600;DHT22;33323;52.124;6.018;2023-04-01T16:33:21;10.40;99.90
47600;DHT22;33323;52.124;6.018;2023-04-01T16:36:04;10.30;99.90
47600;DHT22;33323;52.124;6.018;2023-04-01T16:39:06;10.20;99.90
47600;DHT22;33323;52.124;6.018;2023-04-01T16:47:32;10.00;99.90
47600;DHT22;33323;52.124;6.018;2023-04-01T16:50:19;10.10;99.90
47600;DHT22;33323;52.124;6.018;2023-04-01T16:52:58;10.00;99.90
47600;DHT22;33323;52.124;6.018;2023-04-01T16:58:41;10.00;99.90
47600;DHT22;33323;52.124;6.018;2023-04-01T17:01:16;10.00;99.90
47600;DHT22;33323;52.124;6.018;2023-04-01T17:03:52;9.90;99.90
47600;DHT22;33323;52.124;6.018;2023-04-01T17:06:34;9.90;99.90
47600;DHT22;33323;52.124;6.018;2023-04-01T17:09:16;9.90;99.90
47600;DHT22;33323;52.124;6.018;2023-04-01T17:14:57;9.90;99.90
47600;DHT22;33323;52.124;6.018;2023-04-01T17:18:01;9.90;99.90
47600;DHT22;33323;52.124;6.018;2023-04-01T17:26:32;9.70;99.90
47600;DHT22;33323;52.124;6.018;2023-04-01T17:32:28;9.60;99.90
47600;DHT22;33323;52.124;6.018;2023-04-01T17:35:32;9.50;99.90
47600;DHT22;33323;52.124;6.018;2023-04-01T17:38:37;9.40;99.90
47600;DHT22;33323;52.124;6.018;2023-04-01T17:41:42;9.30;99.90
47600;DHT22;33323;52.124;6.018;2023-04-01T17:59:56;9.20;99.90
47600;DHT22;33323;52.124;6.018;2023-04-01T18:02:53;9.20;99.90
47600;DHT22;33323;52.124;6.018;2023-04-01T18:17:24;9.00;99.90
47600;DHT22;33323;52.124;6.018;2023-04-01T18:22:26;9.00;99.90
47600;DHT22;33323;52.124;6.018;2023-04-01T18:25:45;9.00;99.90
47600;DHT22;33323;52.124;6.018;2023-04-01T18:28:39;9.00;99.90
47600;DHT22;33323;52.124;6.018;2023-04-01T18:31:20;8.90;99.90
47600;DHT22;33323;52.124;6.018;2023-04-01T18:36:22;8.90;99.90
47600;DHT22;33323;52.124;6.018;2023-04-01T18:42:06;8.90;99.90
47600;DHT22;33323;52.124;6.018;2023-04-01T18:44:49;8.80;99.90
47600;DHT22;33323;52.124;6.018;2023-04-01T18:47:23;8.90;99.90
47600;DHT22;33323;52.124;6.018;2023-04-01T18:50:30;8.80;99.90
47600;DHT22;33323;52.124;6.018;2023-04-01T18:56:10;8.60;99.90
47600;DHT22;33323;52.124;6.018;2023-04-01T19:02:08;8.60;99.90
47600;DHT22;33323;52.124;6.018;2023-04-01T19:04:56;8.50;99.90
47600;DHT22;33323;52.124;6.018;2023-04-01T19:26:33;8.30;99.90
47600;DHT22;33323;52.124;6.018;2023-04-01T19:32:57;8.20;99.90
47600;DHT22;33323;52.124;6.018;2023-04-01T19:35:56;8.10;99.90
47600;DHT22;33323;52.124;6.018;2023-04-01T19:47:44;8.10;99.90
47600;DHT22;33323;52.124;6.018;2023-04-01T19:50:40;8.00;99.90
47600;DHT22;33323;52.124;6.018;2023-04-01T19:56:16;8.00;99.90
47600;DHT22;33323;52.124;6.018;2023-04-01T19:59:11;8.00;99.90
47600;DHT22;33323;52.124;6.018;2023-04-01T20:04:53;8.00;99.90
47600;DHT22;33323;52.124;6.018;2023-04-01T20:07:37;8.00;99.90
47600;DHT22;33323;52.124;6.018;2023-04-01T20:10:09;7.90;99.90
47600;DHT22;33323;52.124;6.018;2023-04-01T20:16:09;7.90;99.90
47600;DHT22;33323;52.124;6.018;2023-04-01T20:18:54;7.80;99.90
47600;DHT22;33323;52.124;6.018;2023-04-01T20:21:36;7.70;99.90
47600;DHT22;33323;52.124;6.018;2023-04-01T20:26:48;7.60;99.90
47600;DHT22;33323;52.124;6.018;2023-04-01T20:41:40;7.70;99.90
47600;DHT22;33323;52.124;6.018;2023-04-01T20:47:37;7.70;99.90
47600;DHT22;33323;52.124;6.018;2023-04-01T20:50:25;7.60;99.90
47600;DHT22;33323;52.124;6.018;2023-04-01T20:56:21;7.50;99.90
47600;DHT22;33323;52.124;6.018;2023-04-01T21:07:46;7.40;99.90
47600;DHT22;33323;52.124;6.018;2023-04-01T21:16:43;7.30;99.90
47600;DHT22;33323;52.124;6.018;2023-04-01T21:48:19;7.10;99.90
47600;DHT22;33323;52.124;6.018;2023-04-01T21:59:52;6.90;99.90
47600;DHT22;33323;52.124;6.018;2023-04-01T22:06:06;6.80;99.90
47600;DHT22;33323;52.124;6.018;2023-04-01T22:09:11;6.70;99.90
47600;DHT22;33323;52.124;6.018;2023-04-01T22:17:41;6.70;99.90
47600;DHT22;33323;52.124;6.018;2023-04-01T22:20:27;6.60;99.90
47600;DHT22;33323;52.124;6.018;2023-04-01T22:28:19;6.70;99.90
47600;DHT22;33323;52.124;6.018;2023-04-01T22:31:01;6.60;99.90
47600;DHT22;33323;52.124;6.018;2023-04-01T22:33:39;6.70;99.90
47600;DHT22;33323;52.124;6.018;2023-04-01T22:42:47;6.60;99.90
47600;DHT22;33323;52.124;6.018;2023-04-01T22:45:39;6.60;99.90
47600;DHT22;33323;52.124;6.018;2023-04-01T22:48:47;6.60;99.90
47600;DHT22;33323;52.124;6.018;2023-04-01T22:51:28;6.60;99.90
47600;DHT22;33323;52.124;6.018;2023-04-01T22:54:29;6.50;99.90
47600;DHT22;33323;52.124;6.018;2023-04-01T22:57:05;6.50;99.90
47600;DHT22;33323;52.124;6.018;2023-04-01T22:59:44;6.50;99.90
47600;DHT22;33323;52.124;6.018;2023-04-01T23:02:30;6.50;99.90
47600;DHT22;33323;52.124;6.018;2023-04-01T23:05:04;6.50;99.90
47600;DHT22;33323;52.124;6.018;2023-04-01T23:10:30;6.40;99.90
47600;DHT22;33323;52.124;6.018;2023-04-01T23:13:20;6.40;99.90
47600;DHT22;33323;52.124;6.018;2023-04-01T23:15:53;6.40;99.90
47600;DHT22;33323;52.124;6.018;2023-04-01T23:19:37;6.40;99.90
47600;DHT22;33323;52.124;6.018;2023-04-01T23:21:46;6.40;99.90
47600;DHT22;33323;52.124;6.018;2023-04-01T23:24:28;6.40;99.90
47600;DHT22;33323;52.124;6.018;2023-04-01T23:27:13;6.40;99.90
47600;DHT22;33323;52.124;6.018;2023-04-01T23:29:49;6.30;99.90
47600;DHT22;33323;52.124;6.018;2023-04-01T23:32:23;6.20;99.90
47600;DHT22;33323;52.124;6.018;2023-04-01T23:34:57;6.30;99.90
47600;DHT22;33323;52.124;6.018;2023-04-01T23:37:26;6.20;99.90
47600;DHT22;33323;52.124;6.018;2023-04-01T23:39:54;6.20;99.90
47600;DHT22;33323;52.124;6.018;2023-04-01T23:42:30;6.20;99.90
47600;DHT22;33323;52.124;6.018;2023-04-01T23:45:03;6.20;99.90
47600;DHT22;33323;52.124;6.018;2023-04-01T23:47:34;6.20;99.90
47600;DHT22;33323;52.124;6.018;2023-04-01T23:50:14;6.20;99.90
47600;DHT22;33323;52.124;6.018;2023-04-01T23:55:32;6.20;99.90
